Time;durP1;ratioP1;P1;durP2;ratioP2;P2;SDS_P1;SDS_P2;PMS_P1;PMS_P2;Temp;Humidity;BMP_temperature;BMP_pressure;BME280_temperature;BME280_humidity;BME280_pressure;Samples;Min_cycle;Max_cycle;Signal;HPM_P1;HPM_P2
2022/03/23 00:01:40;;;;;;;6.60;3.40;;;9.30;99.90;;;;;;1872787;75;21156;-87
2022/03/23 00:04:35;;;;;;;7.75;3.25;;;9.30;99.90;;;;;;1897706;75;21110;-87
2022/03/23 00:10:21;;;;;;;8.73;3.47;;;9.20;99.90;;;;;;1960093;72;22130;-87
2022/03/23 00:19:01;;;;;;;8.83;3.95;;;9.20;99.90;;;;;;1945660;72;22151;-88
2022/03/23 00:22:13;;;;;;;6.22;4.00;;;9.10;99.90;;;;;;1931808;73;21172;-88
2022/03/23 00:27:58;;;;;;;10.88;3.33;;;9.10;99.90;;;;;;1941548;72;22110;-88
2022/03/23 00:33:48;;;;;;;7.22;3.98;;;9.10;99.90;;;;;;1944145;72;22578;-87
2022/03/23 00:36:58;;;;;;;5.55;3.55;;;9.10;99.90;;;;;;1890408;75;21115;-86
2022/03/23 00:39:50;;;;;;;5.45;3.50;;;9.10;99.90;;;;;;1880585;74;21096;-87
2022/03/23 00:42:43;;;;;;;7.15;3.70;;;9.00;99.90;;;;;;1884230;75;21670;-86
2022/03/23 00:45:34;;;;;;;4.75;3.42;;;9.00;99.90;;;;;;1892578;75;21114;-86
2022/03/23 00:48:26;;;;;;;7.35;3.52;;;8.90;99.90;;;;;;1854105;77;21082;-86
2022/03/23 00:53:59;;;;;;;6.60;3.40;;;8.90;99.90;;;;;;1939819;72;22138;-87
2022/03/23 00:59:48;;;;;;;10.48;3.85;;;8.80;99.90;;;;;;1928316;72;22189;-88
2022/03/23 01:02:58;;;;;;;8.45;3.60;;;8.80;99.90;;;;;;1898322;75;21097;-87
2022/03/23 01:05:52;;;;;;;8.28;3.40;;;8.70;99.90;;;;;;1898527;75;21063;-87
2022/03/23 01:08:44;;;;;;;5.58;3.58;;;8.70;99.90;;;;;;1900569;75;21130;-87
2022/03/23 01:14:19;;;;;;;9.35;4.10;;;8.70;99.90;;;;;;1943931;72;22080;-87
2022/03/23 01:17:29;;;;;;;6.62;4.05;;;8.60;99.90;;;;;;1904634;75;21118;-87
2022/03/23 01:20:24;;;;;;;7.87;3.37;;;8.60;99.90;;;;;;1892362;75;21051;-87
2022/03/23 01:26:00;;;;;;;6.70;3.62;;;8.50;99.90;;;;;;1936791;72;22134;-87
2022/03/23 01:29:12;;;;;;;6.20;3.52;;;8.50;99.90;;;;;;1894730;75;21133;-87
2022/03/23 01:32:05;;;;;;;7.45;3.98;;;8.50;99.90;;;;;;1894785;75;21071;-86
2022/03/23 01:34:57;;;;;;;9.28;3.75;;;8.40;99.90;;;;;;1892993;75;21138;-86
2022/03/23 01:37:48;;;;;;;7.33;3.62;;;8.40;99.90;;;;;;1890253;75;21063;-87
2022/03/23 01:40:40;;;;;;;8.53;3.90;;;8.40;99.90;;;;;;1894769;75;21108;-87
2022/03/23 01:43:33;;;;;;;6.28;3.62;;;8.40;99.90;;;;;;1894917;75;21102;-86
2022/03/23 01:46:28;;;;;;;7.03;4.78;;;8.50;99.90;;;;;;1888494;75;21542;-86
2022/03/23 01:49:19;;;;;;;8.13;4.60;;;8.50;99.90;;;;;;1891076;75;21213;-87
2022/03/23 01:52:13;;;;;;;7.80;4.33;;;8.50;99.90;;;;;;1905099;75;21129;-86
2022/03/23 01:55:11;;;;;;;10.30;5.20;;;8.60;99.90;;;;;;1883451;75;21122;-86
2022/03/23 01:58:03;;;;;;;8.93;5.53;;;8.60;99.90;;;;;;1890734;75;21075;-86
2022/03/23 02:00:56;;;;;;;8.78;5.58;;;8.60;99.90;;;;;;1886759;75;21135;-86
2022/03/23 02:03:48;;;;;;;10.05;5.87;;;8.50;99.90;;;;;;1872994;75;21059;-87
2022/03/23 02:06:40;;;;;;;8.78;6.12;;;8.40;99.90;;;;;;1897012;75;21095;-87
2022/03/23 02:09:33;;;;;;;9.60;5.47;;;8.40;99.90;;;;;;1880605;75;21031;-87
2022/03/23 02:15:14;;;;;;;8.33;5.90;;;8.40;99.90;;;;;;1963555;72;22189;-87
2022/03/23 02:18:24;;;;;;;10.15;5.70;;;8.30;99.90;;;;;;1919888;74;21101;-87
2022/03/23 02:23:59;;;;;;;8.50;6.00;;;8.10;99.90;;;;;;1944526;72;22182;-88
2022/03/23 02:27:10;;;;;;;9.58;6.45;;;8.10;99.90;;;;;;1893132;75;21142;-87
2022/03/23 02:30:02;;;;;;;11.43;5.92;;;8.00;99.90;;;;;;1888092;75;21071;-87
2022/03/23 02:32:53;;;;;;;8.50;6.35;;;8.00;99.90;;;;;;1891744;75;21067;-89
2022/03/23 02:35:45;;;;;;;8.55;6.30;;;8.00;99.90;;;;;;1898521;75;21051;-87
2022/03/23 02:38:40;;;;;;;11.18;5.87;;;7.90;99.90;;;;;;1894848;75;21165;-87
2022/03/23 02:41:32;;;;;;;9.35;6.45;;;7.80;99.90;;;;;;1892746;75;21102;-87
2022/03/23 02:44:25;;;;;;;8.33;5.97;;;7.70;99.90;;;;;;1887520;75;21117;-87
2022/03/23 02:47:17;;;;;;;11.80;6.20;;;7.60;99.90;;;;;;1891056;75;21085;-88
2022/03/23 02:50:11;;;;;;;9.28;5.97;;;7.60;99.90;;;;;;1893045;75;21590;-87
2022/03/23 03:02:29;;;;;;;10.00;6.25;;;7.40;99.90;;;;;;1944274;73;21035;-87
2022/03/23 03:05:24;;;;;;;9.65;6.22;;;7.40;99.90;;;;;;1917663;75;21111;-89
2022/03/23 03:11:26;;;;;;;9.00;6.25;;;7.40;99.90;;;;;;1938524;73;21095;-87
2022/03/23 03:14:17;;;;;;;9.30;6.75;;;7.30;99.90;;;;;;1937282;73;21521;-86
2022/03/23 03:17:09;;;;;;;9.08;5.80;;;7.30;99.90;;;;;;1917630;75;21070;-87
2022/03/23 03:20:00;;;;;;;8.48;5.70;;;7.20;99.90;;;;;;1935939;73;21112;-87
2022/03/23 03:28:27;;;;;;;8.93;6.08;;;7.20;99.90;;;;;;1941626;72;22186;-87
2022/03/23 03:34:17;;;;;;;8.23;5.83;;;7.20;99.90;;;;;;1936455;72;22285;-87
2022/03/23 03:37:27;;;;;;;10.25;5.55;;;7.10;99.90;;;;;;1904438;74;21052;-87
2022/03/23 03:40:18;;;;;;;8.48;5.83;;;7.10;99.90;;;;;;1898934;75;21127;-88
2022/03/23 03:48:53;;;;;;;8.18;5.78;;;6.90;99.90;;;;;;1943229;72;22159;-88
2022/03/23 03:52:03;;;;;;;8.15;5.60;;;6.90;99.90;;;;;;1917444;75;21046;-87
2022/03/23 03:54:54;;;;;;;7.20;5.28;;;7.00;99.90;;;;;;1917510;75;21126;-88
2022/03/23 03:57:48;;;;;;;8.43;6.20;;;6.90;99.90;;;;;;1927976;73;21063;-86
2022/03/23 04:03:26;;;;;;;11.48;6.22;;;6.80;99.90;;;;;;1948772;72;22275;-88
2022/03/23 04:06:36;;;;;;;7.92;6.17;;;6.70;99.90;;;;;;1914238;75;21487;-87
2022/03/23 04:09:27;;;;;;;10.20;5.75;;;6.80;99.90;;;;;;1892733;75;21115;-87
2022/03/23 04:14:59;;;;;;;8.95;6.15;;;6.80;99.90;;;;;;1958287;72;22155;-88
2022/03/23 04:18:11;;;;;;;9.23;6.62;;;6.70;99.90;;;;;;1903098;75;21135;-87
2022/03/23 04:21:05;;;;;;;9.55;6.05;;;6.70;99.90;;;;;;1876774;75;21061;-87
2022/03/23 04:23:57;;;;;;;8.60;6.12;;;6.70;99.90;;;;;;1875087;75;21067;-88
2022/03/23 04:26:51;;;;;;;9.93;5.72;;;6.60;99.90;;;;;;1886949;75;21144;-86
2022/03/23 04:29:43;;;;;;;9.58;6.22;;;6.50;99.90;;;;;;1900778;75;21056;-86
2022/03/23 04:32:35;;;;;;;8.85;5.78;;;6.40;99.90;;;;;;1888331;75;21056;-87
2022/03/23 04:35:28;;;;;;;8.05;5.50;;;6.40;99.90;;;;;;1894932;75;21120;-88
2022/03/23 04:43:43;;;;;;;8.53;5.72;;;6.40;99.90;;;;;;1948362;72;22265;-88
2022/03/23 04:46:53;;;;;;;8.08;5.60;;;6.30;99.90;;;;;;1906211;74;21104;-86
2022/03/23 04:49:45;;;;;;;11.65;6.55;;;6.20;99.90;;;;;;1895690;75;21071;-87
2022/03/23 04:52:37;;;;;;;7.62;5.92;;;6.20;99.90;;;;;;1901122;75;21043;-87
2022/03/23 04:58:10;;;;;;;10.03;6.20;;;6.30;99.90;;;;;;1954256;72;22151;-86
2022/03/23 05:01:20;;;;;;;7.45;5.55;;;6.30;99.90;;;;;;1909833;75;21145;-87
2022/03/23 05:04:11;;;;;;;9.23;6.30;;;6.20;99.90;;;;;;1898348;75;21098;-87
2022/03/23 05:07:03;;;;;;;10.32;5.97;;;6.20;99.90;;;;;;1901856;75;21047;-87
2022/03/23 05:09:55;;;;;;;6.55;5.50;;;6.20;99.90;;;;;;1885687;75;21057;-87
2022/03/23 05:15:28;;;;;;;11.08;5.60;;;6.20;99.90;;;;;;1959776;72;22221;-88
2022/03/23 05:21:21;;;;;;;9.93;5.85;;;6.20;99.90;;;;;;1964826;72;22122;-88
2022/03/23 05:24:32;;;;;;;10.25;6.28;;;6.20;99.90;;;;;;1905125;75;21094;-87
2022/03/23 05:27:32;;;;;;;11.20;6.03;;;6.20;99.90;;;;;;1927736;74;21059;-88
2022/03/23 05:30:28;;;;;;;13.10;6.78;;;6.20;99.90;;;;;;1905417;75;21056;-88
2022/03/23 05:33:20;;;;;;;8.63;5.92;;;6.20;99.90;;;;;;1905323;75;21076;-87
2022/03/23 05:36:16;;;;;;;9.15;5.97;;;6.20;99.90;;;;;;1905339;75;21088;-87
2022/03/23 05:39:12;;;;;;;11.22;5.92;;;6.20;99.90;;;;;;1905321;75;21090;-87
2022/03/23 05:44:56;;;;;;;9.30;6.00;;;6.20;99.90;;;;;;1945538;72;22151;-88
2022/03/23 05:48:15;;;;;;;9.68;6.20;;;6.20;99.90;;;;;;1900359;75;21103;-88
2022/03/23 05:54:30;;;;;;;9.63;6.42;;;6.20;99.90;;;;;;1958277;72;22128;-79
2022/03/23 05:57:44;;;;;;;8.38;6.33;;;6.20;99.90;;;;;;1904514;75;21088;-76
2022/03/23 06:03:19;;;;;;;7.85;5.92;;;6.20;99.90;;;;;;1947081;72;22147;-75
2022/03/23 06:09:10;;;;;;;8.98;5.78;;;6.10;99.90;;;;;;1937759;72;22138;-76
2022/03/23 06:12:23;;;;;;;8.70;6.08;;;6.10;99.90;;;;;;1888042;75;21107;-77
2022/03/23 06:15:14;;;;;;;8.37;6.50;;;6.10;99.90;;;;;;1899913;75;21050;-76
2022/03/23 06:18:06;;;;;;;13.08;6.67;;;6.10;99.90;;;;;;1905532;75;21132;-76
2022/03/23 06:23:36;;;;;;;7.62;6.05;;;6.10;99.90;;;;;;1976167;72;22147;-77
2022/03/23 06:29:25;;;;;;;9.68;6.35;;;6.20;99.90;;;;;;1952236;72;22350;-77
2022/03/23 06:32:45;;;;;;;8.70;6.78;;;6.20;99.90;;;;;;1885112;74;21057;-77
2022/03/23 06:38:18;;;;;;;8.30;6.47;;;6.30;99.90;;;;;;1947616;72;22123;-77
2022/03/23 06:44:13;;;;;;;9.85;6.90;;;6.40;99.90;;;;;;1944986;72;22169;-76
2022/03/23 06:47:26;;;;;;;9.88;6.78;;;6.40;99.90;;;;;;1913659;75;21083;-76
2022/03/23 06:50:17;;;;;;;8.35;6.47;;;6.50;99.90;;;;;;1911014;75;21122;-77
2022/03/23 06:53:09;;;;;;;12.70;7.20;;;6.50;99.90;;;;;;1916807;74;21126;-76
2022/03/23 06:58:46;;;;;;;10.85;7.03;;;6.60;99.90;;;;;;1963131;72;22119;-76
2022/03/23 07:04:35;;;;;;;10.08;7.08;;;6.70;99.90;;;;;;1949399;72;22264;-77
2022/03/23 07:10:56;;;;;;;8.33;7.30;;;6.70;99.90;;;;;;1917131;74;21191;-77
2022/03/23 07:13:47;;;;;;;10.35;6.62;;;6.80;99.90;;;;;;1935398;73;21046;-77
2022/03/23 07:19:18;;;;;;;12.63;7.70;;;7.00;99.90;;;;;;1952688;72;22264;-76
2022/03/23 07:22:29;;;;;;;13.78;7.37;;;7.00;99.90;;;;;;1934182;73;21059;-77
2022/03/23 07:25:21;;;;;;;9.20;6.58;;;7.00;99.90;;;;;;1938650;73;21071;-76
2022/03/23 07:28:13;;;;;;;11.18;7.65;;;7.10;99.90;;;;;;1917642;73;21087;-76
2022/03/23 07:33:44;;;;;;;10.03;7.87;;;7.20;99.90;;;;;;1932302;72;22270;-77
2022/03/23 07:36:54;;;;;;;13.18;7.92;;;7.30;99.90;;;;;;1900565;75;21146;-77
2022/03/23 07:39:45;;;;;;;9.75;7.25;;;7.40;99.90;;;;;;1917422;75;21203;-77
2022/03/23 07:42:41;;;;;;;14.70;7.50;;;7.40;99.90;;;;;;1912332;75;21124;-77
2022/03/23 07:45:34;;;;;;;9.20;7.00;;;7.50;99.90;;;;;;1908487;75;21065;-77
2022/03/23 07:48:27;;;;;;;11.97;8.00;;;7.50;99.90;;;;;;1911203;75;21055;-82
2022/03/23 07:53:57;;;;;;;11.45;7.90;;;7.60;99.90;;;;;;1964553;72;22127;-81
2022/03/23 07:57:09;;;;;;;17.90;7.95;;;7.70;99.90;;;;;;1914462;74;21054;-81
2022/03/23 08:00:03;;;;;;;10.98;8.03;;;7.80;99.90;;;;;;1905324;75;21089;-81
2022/03/23 08:02:56;;;;;;;15.63;8.18;;;7.90;99.90;;;;;;1931972;74;21134;-80
2022/03/23 08:13:47;;;;;;;11.65;7.70;;;8.20;99.90;;;;;;1956809;72;22250;-80
2022/03/23 08:19:37;;;;;;;14.28;8.63;;;8.40;99.90;;;;;;1942143;72;22223;-81
2022/03/23 08:25:26;;;;;;;14.73;8.15;;;8.50;99.90;;;;;;1953551;72;22234;-80
2022/03/23 08:33:56;;;;;;;9.90;7.17;;;8.70;99.90;;;;;;1952678;72;22265;-80
2022/03/23 08:37:11;;;;;;;14.53;7.60;;;8.80;99.90;;;;;;1922943;73;21077;-80
2022/03/23 08:40:05;;;;;;;12.65;8.08;;;8.90;99.90;;;;;;1917369;75;21101;-79
2022/03/23 08:42:58;;;;;;;10.60;7.70;;;9.00;99.90;;;;;;1940783;73;21130;-80
2022/03/23 08:48:30;;;;;;;15.78;8.23;;;9.20;99.90;;;;;;1952157;72;22102;-79
2022/03/23 08:51:41;;;;;;;11.05;7.80;;;9.20;99.90;;;;;;1917309;73;21136;-81
2022/03/23 08:54:35;;;;;;;15.48;7.65;;;9.30;99.90;;;;;;1884738;76;21216;-81
2022/03/23 08:57:31;;;;;;;16.37;8.08;;;9.40;99.90;;;;;;1901927;75;21070;-79
2022/03/23 09:00:23;;;;;;;15.68;8.03;;;9.50;99.90;;;;;;1896818;75;21137;-79
2022/03/23 09:05:54;;;;;;;11.40;7.80;;;9.70;99.90;;;;;;1954025;72;22182;-81
2022/03/23 09:09:04;;;;;;;15.10;7.70;;;9.70;99.90;;;;;;1900193;74;21038;-80
2022/03/23 09:14:42;;;;;;;12.80;7.45;;;9.90;99.90;;;;;;1976198;72;22238;-80
2022/03/23 09:17:53;;;;;;;9.33;6.33;;;10.00;99.90;;;;;;1925404;73;21125;-79
2022/03/23 09:23:36;;;;;;;13.72;7.33;;;10.20;99.90;;;;;;1976164;72;22147;-79
2022/03/23 09:29:26;;;;;;;9.35;6.22;;;10.40;99.90;;;;;;1956224;72;22212;-79
2022/03/23 09:32:35;;;;;;;10.10;6.30;;;10.50;99.90;;;;;;1895519;74;21085;-80
2022/03/23 09:35:35;;;;;;;9.75;6.30;;;10.50;99.90;;;;;;1890722;75;21176;-78
2022/03/23 09:38:27;;;;;;;11.38;6.85;;;10.60;99.90;;;;;;1889310;75;21114;-78
2022/03/23 09:46:43;;;;;;;8.98;5.92;;;10.80;99.90;;;;;;1960735;72;22226;-79
2022/03/23 09:49:54;;;;;;;11.20;6.37;;;10.90;99.90;;;;;;1906277;74;21055;-78
2022/03/23 09:55:27;;;;;;;11.00;6.85;;;11.10;99.90;;;;;;1941534;72;22130;-79
2022/03/23 09:58:37;;;;;;;9.93;6.72;;;11.20;99.90;;;;;;1910705;75;21124;-79
2022/03/23 10:02:23;;;;;;;11.10;6.53;;;11.30;99.90;;;;;;1917562;75;21070;-80
2022/03/23 10:05:56;;;;;;;11.73;6.47;;;11.30;99.90;;;;;;1819432;75;21095;-80
2022/03/23 10:09:19;;;;;;;11.40;6.83;;;11.30;99.90;;;;;;1817808;78;21083;-79
2022/03/23 10:24:37;;;;;;;10.03;6.22;;;11.70;99.90;;;;;;1928857;72;22267;-79
2022/03/23 10:30:36;;;;;;;12.70;6.17;;;11.90;99.90;;;;;;1952654;72;22241;-80
2022/03/23 10:33:47;;;;;;;8.00;6.12;;;12.10;99.90;;;;;;1893110;75;21495;-78
2022/03/23 10:36:54;;;;;;;11.90;7.70;;;12.20;99.90;;;;;;1902176;75;21551;-79
2022/03/23 10:39:51;;;;;;;12.15;6.92;;;12.20;99.90;;;;;;1903236;75;21166;-78
2022/03/23 10:45:24;;;;;;;11.20;6.72;;;12.30;99.90;;;;;;1947582;72;22267;-79
2022/03/23 10:48:34;;;;;;;12.43;6.45;;;12.30;99.90;;;;;;1911355;75;21123;-78
2022/03/23 10:51:30;;;;;;;9.63;6.37;;;12.50;99.90;;;;;;1894462;75;21141;-79
2022/03/23 10:54:25;;;;;;;10.25;6.87;;;12.60;99.90;;;;;;1901793;75;21135;-78
2022/03/23 10:59:57;;;;;;;10.50;7.10;;;12.60;99.90;;;;;;1945853;72;22484;-79
2022/03/23 11:03:10;;;;;;;9.53;6.25;;;12.70;99.90;;;;;;1939560;73;21134;-78
2022/03/23 11:08:47;;;;;;;9.40;6.45;;;12.90;99.90;;;;;;1946041;72;20117;-77
2022/03/23 11:18:09;;;;;;;8.98;6.42;;;13.10;99.90;;;;;;1905974;75;21108;-79
2022/03/23 11:29:03;;;;;;;10.35;6.72;;;13.50;99.90;;;;;;1930345;72;22258;-77
2022/03/23 11:32:16;;;;;;;15.63;6.83;;;13.50;99.90;;;;;;1908165;75;21167;-77
2022/03/23 11:35:10;;;;;;;11.75;6.17;;;13.70;99.90;;;;;;1917513;75;21055;-77
2022/03/23 11:38:05;;;;;;;14.07;6.42;;;13.80;99.00;;;;;;1902626;75;21059;-77
2022/03/23 11:43:37;;;;;;;11.93;6.03;;;14.00;97.90;;;;;;1971466;72;22099;-78
2022/03/23 11:46:53;;;;;;;10.55;6.62;;;14.00;97.80;;;;;;1929464;73;21117;-78
2022/03/23 11:52:35;;;;;;;12.82;6.70;;;14.20;97.10;;;;;;1938474;72;22353;-79
2022/03/23 11:55:51;;;;;;;8.08;5.55;;;14.20;96.40;;;;;;1917172;75;21031;-78
2022/03/23 11:58:43;;;;;;;9.03;5.77;;;14.30;95.20;;;;;;1912093;75;21109;-78
2022/03/23 12:01:35;;;;;;;7.47;5.83;;;14.30;95.30;;;;;;1916635;75;21154;-78
2022/03/23 12:04:28;;;;;;;9.40;5.97;;;14.40;95.20;;;;;;1895252;75;21167;-78
2022/03/23 12:07:23;;;;;;;9.33;5.50;;;14.50;94.80;;;;;;1912412;75;21098;-78
2022/03/23 12:10:23;;;;;;;9.15;5.30;;;14.60;92.80;;;;;;1897726;75;21515;-78
2022/03/23 12:13:17;;;;;;;8.80;5.33;;;14.70;91.80;;;;;;1917045;75;21168;-80
2022/03/23 12:16:12;;;;;;;6.45;5.20;;;14.90;91.10;;;;;;1895451;75;21125;-78
2022/03/23 12:19:06;;;;;;;10.53;5.03;;;15.00;90.00;;;;;;1895626;75;21050;-78
2022/03/23 12:22:15;;;;;;;;;;;14.90;89.70;;;;;;1918898;75;21103;-78
2022/03/23 12:25:10;;;;;;;9.53;5.50;;;15.00;89.40;;;;;;1917440;75;20116;-78
2022/03/23 12:34:06;;;;;;;9.45;5.35;;;15.40;83.70;;;;;;1933740;72;22150;-79
2022/03/23 12:37:20;;;;;;;8.45;4.90;;;15.30;80.30;;;;;;1902819;75;21042;-78
2022/03/23 12:40:15;;;;;;;7.28;5.50;;;15.20;81.00;;;;;;1915670;75;21160;-78
2022/03/23 12:43:09;;;;;;;7.45;5.20;;;15.40;81.50;;;;;;1904092;75;21114;-78
2022/03/23 12:58:47;;;;;;;8.40;5.17;;;16.00;79.00;;;;;;1872950;75;21105;-78
2022/03/23 13:01:41;;;;;;;6.03;4.80;;;16.10;77.70;;;;;;1874521;75;21108;-78
2022/03/23 13:07:52;;;;;;;8.23;4.75;;;16.00;77.10;;;;;;1950157;72;22146;-79
2022/03/23 13:11:06;;;;;;;6.67;4.90;;;15.90;77.10;;;;;;1906786;75;21553;-79
2022/03/23 13:14:00;;;;;;;9.10;5.08;;;16.00;76.90;;;;;;1903910;75;21114;-78
2022/03/23 13:16:55;;;;;;;9.60;4.95;;;16.10;75.90;;;;;;1902478;75;21059;-77
2022/03/23 13:19:47;;;;;;;5.35;4.58;;;16.20;76.80;;;;;;1906642;75;21082;-77
2022/03/23 13:22:40;;;;;;;8.80;5.05;;;16.20;77.70;;;;;;1906771;75;21159;-77
2022/03/23 13:25:32;;;;;;;7.62;4.55;;;16.30;77.00;;;;;;1906618;75;21094;-77
2022/03/23 13:28:25;;;;;;;6.10;4.05;;;16.30;77.70;;;;;;1902215;75;21070;-77
2022/03/23 13:31:20;;;;;;;7.28;5.03;;;16.20;78.10;;;;;;1897118;75;21109;-77
2022/03/23 13:34:14;;;;;;;7.08;4.45;;;16.40;77.90;;;;;;1909241;75;21109;-78
2022/03/23 13:37:07;;;;;;;6.42;4.78;;;16.40;77.50;;;;;;1906518;75;21194;-78
2022/03/23 13:39:59;;;;;;;6.70;4.35;;;16.40;78.40;;;;;;1905380;75;21106;-77
2022/03/23 13:46:02;;;;;;;10.40;5.10;;;16.50;77.90;;;;;;1917608;75;21114;-78
2022/03/23 13:49:02;;;;;;;7.03;4.83;;;16.50;75.20;;;;;;1907175;75;21114;-78
2022/03/23 13:51:53;;;;;;;10.15;4.60;;;16.70;71.40;;;;;;1891309;75;21086;-77
2022/03/23 13:54:47;;;;;;;6.95;4.47;;;16.60;72.60;;;;;;1893615;75;21069;-77
2022/03/23 13:57:40;;;;;;;8.63;4.95;;;16.80;73.60;;;;;;1904171;75;21054;-77
2022/03/23 14:00:35;;;;;;;8.33;4.42;;;16.80;74.70;;;;;;1899023;75;21051;-78
2022/03/23 14:03:31;;;;;;;7.53;4.78;;;16.70;73.80;;;;;;1885608;75;21109;-78
2022/03/23 14:06:23;;;;;;;7.95;4.85;;;16.80;73.40;;;;;;1891022;74;21138;-77
2022/03/23 14:09:32;;;;;;;5.97;5.00;;;16.80;72.70;;;;;;1905244;74;21087;-77
2022/03/23 14:12:34;;;;;;;8.73;4.90;;;16.90;74.00;;;;;;1903797;74;21113;-77
2022/03/23 14:15:28;;;;;;;7.97;4.58;;;16.90;72.90;;;;;;1894090;74;21105;-77
2022/03/23 14:18:21;;;;;;;8.78;4.65;;;17.00;73.80;;;;;;1907246;74;21054;-78
2022/03/23 14:21:16;;;;;;;9.93;4.85;;;17.10;73.60;;;;;;1904425;74;21572;-77
2022/03/23 14:24:11;;;;;;;8.73;5.30;;;17.40;74.30;;;;;;1904631;74;21133;-77
2022/03/23 14:27:27;;;;;;;7.62;5.25;;;18.20;72.80;;;;;;1904578;74;21583;-77
2022/03/23 14:30:20;;;;;;;6.78;4.70;;;18.80;71.30;;;;;;1925078;74;21184;-78
2022/03/23 14:33:12;;;;;;;8.03;5.30;;;19.20;70.20;;;;;;1893623;74;21574;-78
2022/03/23 14:36:06;;;;;;;10.08;5.78;;;19.50;69.30;;;;;;1893521;76;21050;-83
2022/03/23 14:38:58;;;;;;;8.08;4.85;;;19.60;67.40;;;;;;1915778;74;21055;-83
2022/03/23 14:42:00;;;;;;;8.63;5.08;;;19.50;66.30;;;;;;1915691;74;21102;-82
2022/03/23 14:44:59;;;;;;;9.60;5.17;;;19.70;67.50;;;;;;1915601;74;21184;-77
2022/03/23 14:47:58;;;;;;;6.83;5.10;;;19.90;67.30;;;;;;1911784;74;21127;-78
2022/03/23 14:50:52;;;;;;;9.13;5.17;;;20.00;66.50;;;;;;1926001;74;21149;-78
2022/03/23 14:56:26;;;;;;;6.60;5.72;;;20.70;65.30;;;;;;1932661;72;22222;-79
2022/03/23 15:00:07;;;;;;;7.90;5.20;;;20.50;64.90;;;;;;1908418;75;21143;-78
2022/03/23 15:03:04;;;;;;;5.80;4.75;;;20.10;64.50;;;;;;1895883;75;21094;-78
2022/03/23 15:15:27;;;;;;;10.63;6.12;;;20.50;62.50;;;;;;1903666;75;21121;-78
2022/03/23 15:18:19;;;;;;;7.92;5.72;;;20.40;62.30;;;;;;1862528;76;21594;-78
2022/03/23 15:21:12;;;;;;;10.30;5.40;;;20.40;61.60;;;;;;1895146;75;21132;-80
2022/03/23 15:24:05;;;;;;;8.78;5.62;;;20.60;62.00;;;;;;1858801;76;21129;-78
2022/03/23 15:27:00;;;;;;;7.67;5.75;;;20.20;62.00;;;;;;1895932;75;21176;-78
2022/03/23 15:29:52;;;;;;;9.23;5.12;;;20.20;61.90;;;;;;1884361;76;21172;-78
2022/03/23 15:32:44;;;;;;;8.05;5.20;;;20.70;60.90;;;;;;1906489;75;21072;-78
2022/03/23 15:35:35;;;;;;;6.40;5.20;;;20.70;60.70;;;;;;1890529;75;21081;-78
2022/03/23 15:38:31;;;;;;;9.10;5.33;;;21.00;61.00;;;;;;1895590;75;21130;-79
2022/03/23 15:41:22;;;;;;;9.25;5.45;;;20.20;60.70;;;;;;1917281;75;21117;-80
2022/03/23 15:44:14;;;;;;;9.28;5.03;;;20.80;60.70;;;;;;1884598;75;21122;-78
2022/03/23 15:47:07;;;;;;;8.65;5.53;;;20.70;61.10;;;;;;1884357;75;21068;-77
2022/03/23 15:49:59;;;;;;;10.50;5.28;;;20.70;60.50;;;;;;1891522;73;21637;-77
2022/03/23 15:52:51;;;;;;;8.73;5.97;;;20.60;59.80;;;;;;1925013;73;21149;-77
2022/03/23 15:55:42;;;;;;;8.58;5.40;;;20.60;60.00;;;;;;1888022;75;21079;-77
2022/03/23 15:58:34;;;;;;;7.72;5.58;;;21.00;59.80;;;;;;1903796;74;21051;-78
2022/03/23 16:01:27;;;;;;;10.78;5.53;;;21.00;59.50;;;;;;1904595;74;21333;-77
2022/03/23 16:04:19;;;;;;;7.87;5.55;;;20.30;60.10;;;;;;1859981;76;21116;-77
2022/03/23 16:07:11;;;;;;;10.20;5.20;;;20.60;59.80;;;;;;1900575;75;21039;-78
2022/03/23 16:10:03;;;;;;;5.90;4.83;;;20.70;58.90;;;;;;1848595;76;21066;-77
2022/03/23 16:12:55;;;;;;;6.78;5.10;;;20.90;58.80;;;;;;1884170;75;21116;-77
2022/03/23 16:15:47;;;;;;;7.47;5.28;;;21.00;58.70;;;;;;1884059;75;21089;-77
2022/03/23 16:18:39;;;;;;;9.48;5.47;;;21.00;58.00;;;;;;1902073;75;21140;-78
2022/03/23 16:21:32;;;;;;;8.18;5.50;;;21.00;57.90;;;;;;1903949;75;21070;-77
2022/03/23 16:24:25;;;;;;;8.15;5.10;;;20.60;58.10;;;;;;1914199;75;21039;-77
2022/03/23 16:27:17;;;;;;;5.62;4.85;;;20.70;57.90;;;;;;1891901;75;21101;-78
2022/03/23 16:30:12;;;;;;;12.73;5.28;;;20.60;57.60;;;;;;1884204;76;21184;-77
2022/03/23 16:33:05;;;;;;;6.58;4.85;;;20.10;57.50;;;;;;1900191;75;21054;-77
2022/03/23 16:35:59;;;;;;;10.15;4.83;;;20.40;57.60;;;;;;1895167;75;21055;-78
2022/03/23 16:38:51;;;;;;;7.90;4.65;;;20.00;57.80;;;;;;1858824;76;21151;-78
2022/03/23 16:41:44;;;;;;;9.88;5.17;;;19.80;58.60;;;;;;1895275;75;21052;-78
2022/03/23 16:44:38;;;;;;;7.92;5.28;;;19.40;59.20;;;;;;1898515;75;21706;-78
2022/03/23 16:47:30;;;;;;;7.05;4.80;;;19.00;59.60;;;;;;1884323;76;21584;-77
2022/03/23 16:50:24;;;;;;;9.50;4.85;;;18.90;60.00;;;;;;1905504;75;21195;-77
2022/03/23 16:55:55;;;;;;;8.00;5.03;;;18.50;61.20;;;;;;1954993;72;22612;-77
2022/03/23 16:59:05;;;;;;;6.33;4.40;;;18.40;61.40;;;;;;1904684;74;21121;-78
2022/03/23 17:01:57;;;;;;;6.15;4.70;;;17.90;61.90;;;;;;1895373;75;21150;-78
2022/03/23 17:14:17;;;;;;;6.97;4.60;;;17.20;64.40;;;;;;1893482;75;21179;-78
2022/03/23 17:17:09;;;;;;;6.40;4.47;;;17.00;64.50;;;;;;1903235;75;21129;-78
2022/03/23 17:20:02;;;;;;;6.67;5.17;;;16.90;65.20;;;;;;1898208;75;21423;-77
2022/03/23 17:22:54;;;;;;;9.80;4.65;;;16.90;65.00;;;;;;1908553;75;21643;-80
2022/03/23 17:25:46;;;;;;;11.10;5.05;;;16.80;65.20;;;;;;1906745;75;21508;-79
2022/03/23 17:28:38;;;;;;;6.83;4.45;;;16.70;65.90;;;;;;1905594;75;21561;-77
2022/03/23 17:31:30;;;;;;;10.30;4.80;;;16.60;66.10;;;;;;1900432;75;21050;-78
2022/03/23 17:34:24;;;;;;;6.17;4.40;;;16.40;66.80;;;;;;1895711;75;21067;-77
2022/03/23 17:37:17;;;;;;;10.28;4.97;;;16.40;66.60;;;;;;1911572;75;21054;-79
2022/03/23 17:40:11;;;;;;;7.78;4.47;;;16.30;66.70;;;;;;1906803;75;21495;-78
2022/03/23 17:43:03;;;;;;;7.25;4.70;;;16.20;67.10;;;;;;1903187;75;21068;-77
2022/03/23 17:45:56;;;;;;;12.53;4.58;;;16.20;66.50;;;;;;1897817;75;21106;-77
2022/03/23 17:48:49;;;;;;;9.68;4.58;;;16.30;66.50;;;;;;1895660;75;21059;-77
2022/03/23 17:51:41;;;;;;;7.72;5.10;;;16.20;67.50;;;;;;1889910;75;21715;-77
2022/03/23 17:54:33;;;;;;;7.08;4.90;;;16.10;67.40;;;;;;1904630;75;21055;-77
2022/03/23 17:57:27;;;;;;;8.35;4.60;;;16.10;67.90;;;;;;1905266;75;21072;-78
2022/03/23 18:00:20;;;;;;;8.70;5.12;;;16.00;68.70;;;;;;1895918;75;21047;-78
2022/03/23 18:03:12;;;;;;;7.30;5.08;;;16.00;68.80;;;;;;1883664;75;21150;-80
2022/03/23 18:06:05;;;;;;;6.33;4.58;;;15.90;69.00;;;;;;1904843;75;21043;-77
2022/03/23 18:08:58;;;;;;;7.45;5.05;;;15.80;69.90;;;;;;1904831;75;21052;-77
2022/03/23 18:11:50;;;;;;;8.13;4.50;;;15.70;70.10;;;;;;1885266;75;21055;-77
2022/03/23 18:14:42;;;;;;;8.70;5.40;;;15.70;70.60;;;;;;1904457;75;21056;-79
2022/03/23 18:17:33;;;;;;;8.93;5.35;;;15.70;70.70;;;;;;1879843;75;21146;-78
2022/03/23 18:20:25;;;;;;;7.78;4.62;;;15.60;71.20;;;;;;1903435;75;21143;-78
2022/03/23 18:23:20;;;;;;;8.28;5.20;;;15.60;71.10;;;;;;1898101;75;21686;-77
2022/03/23 18:26:15;;;;;;;8.65;4.80;;;15.50;71.70;;;;;;1894665;75;21064;-78
2022/03/23 18:29:09;;;;;;;6.03;4.37;;;15.40;71.90;;;;;;1872176;75;21053;-78
2022/03/23 18:32:02;;;;;;;8.85;4.80;;;15.40;72.10;;;;;;1884750;75;21129;-78
2022/03/23 18:34:54;;;;;;;7.10;4.97;;;15.30;72.60;;;;;;1898717;75;21175;-78
2022/03/23 18:37:47;;;;;;;7.15;4.40;;;15.30;73.00;;;;;;1884181;76;21128;-78
2022/03/23 18:40:39;;;;;;;6.25;4.33;;;15.20;73.20;;;;;;1894133;75;21119;-77
2022/03/23 18:43:31;;;;;;;7.87;4.85;;;15.30;73.20;;;;;;1874905;75;21538;-77
2022/03/23 18:46:35;;;;;;;7.25;4.90;;;15.20;73.30;;;;;;1885478;75;21052;-78
2022/03/23 18:49:27;;;;;;;6.30;5.05;;;15.20;73.40;;;;;;1889017;75;21073;-78
2022/03/23 18:52:19;;;;;;;8.28;5.30;;;15.20;73.20;;;;;;1896643;75;21074;-78
2022/03/23 18:55:14;;;;;;;7.83;5.22;;;15.20;73.40;;;;;;1904661;75;21048;-77
2022/03/23 18:58:06;;;;;;;10.00;4.40;;;15.20;73.40;;;;;;1879430;75;21055;-78
2022/03/23 19:00:59;;;;;;;7.83;4.95;;;15.20;73.70;;;;;;1904795;75;21107;-77
2022/03/23 19:03:52;;;;;;;9.35;4.60;;;15.10;74.30;;;;;;1900837;75;21121;-77
2022/03/23 19:06:47;;;;;;;8.90;5.20;;;15.00;74.70;;;;;;1905975;75;21095;-77
2022/03/23 19:09:39;;;;;;;6.72;4.97;;;14.90;75.40;;;;;;1893834;75;21126;-77
2022/03/23 19:12:33;;;;;;;6.75;5.10;;;14.70;76.40;;;;;;1906127;75;21067;-77
2022/03/23 19:15:25;;;;;;;8.00;4.80;;;14.60;76.50;;;;;;1902615;75;21112;-77
2022/03/23 19:18:17;;;;;;;8.00;4.47;;;14.60;77.10;;;;;;1897820;75;21040;-78
2022/03/23 19:21:12;;;;;;;7.83;4.87;;;14.50;78.00;;;;;;1894836;75;21125;-77
2022/03/23 19:24:05;;;;;;;6.87;4.75;;;14.40;78.50;;;;;;1895071;75;21059;-77
2022/03/23 19:26:57;;;;;;;5.50;4.40;;;14.30;79.10;;;;;;1895758;75;21098;-77
2022/03/23 19:29:50;;;;;;;6.45;4.53;;;14.40;79.30;;;;;;1900374;75;21110;-77